Landels-Hill Big Creek Reserve Entrance, California Weather observations

Data are for 10 minute period ending at time listed.
 Day   Time   Solar   Ave.   Ave.  Ave.  Vector  Max.   Baro.   Total    
  of    of     Rad.   Air    Rel.  Wind   Wind   Wind  Press.  Precip.   
Year   Day            Temp.  Hum.  Speed  Dir.   Gust                    
2014   (PST)  Kw/m2    F      %     mph   deg.    mph    mb.     in.     
-------------------------------------------------------------------------
 294   18:00   0.00   60.7    69    1.5    34     3.7   1010.2    0.00 
 294   18:10   0.00   60.4    70    1.6    29     3.6   1010.3    0.00 
 294   18:20   0.00   60.4    69    1.6    52     4.3   1010.4    0.00 
 294   18:30   0.00   59.6    70    1.8    43     4.0   1010.3    0.00 
 294   18:40   0.00   59.0    71    1.7    40     4.5   1010.4    0.00 
 294   18:50   0.00   58.9    71    1.6    28     4.0   1010.5    0.00 
 294   19:00   0.00   58.5    71    1.5    61     3.9   1010.7    0.00 
 294   19:10   0.00   58.1    72    1.9    52     3.2   1010.8    0.00 
 294   19:20   0.00   57.7    72    2.0    44     4.2   1010.8    0.00 
 294   19:30   0.00   57.3    72    1.9    31     4.7   1010.9    0.00 
 294   19:40   0.00   57.0    71    1.7    36     4.7   1010.9    0.00 
 294   19:50   0.00   56.7    71    2.0    31     4.2   1010.9    0.00 
 294   20:00   0.00   56.4    72    1.9    19     4.5   1010.9    0.00 
 294   20:10   0.00   56.3    71    2.2    11     4.2   1010.9    0.00 
 294   20:20   0.00   56.2    71    1.8    10     3.8   1010.9    0.00 
 294   20:30   0.00   55.9    71    1.5   359     3.7   1011.1    0.00 
 294   20:40   0.00   55.6    72    1.6     0     3.5   1011.3    0.00 
 294   20:50   0.00   55.4    72    1.6   357     4.1   1011.4    0.00 
 294   21:00   0.00   55.5    72    2.5    13     4.9   1011.4    0.00 
 294   21:10   0.00   55.5    69    2.2    11     4.9   1011.4    0.00 
 294   21:20   0.00   55.5    68    2.2    12     5.2   1011.6    0.00 
 294   21:30   0.00   55.3    68    2.4    23     5.0   1011.7    0.00 
 294   21:40   0.00   55.3    68    2.0    16     3.7   1011.7    0.00 
 294   21:50   0.00   55.3    67    2.1    18     4.6   1011.7    0.00 
 294   22:00   0.00   55.5    66    1.7    14     4.4   1011.8    0.00 
 294   22:10   0.00   56.2    64    2.1    49     4.9   1011.8    0.00 
 294   22:20   0.00   55.2    66    1.1     2     3.5   1011.7    0.00 
 294   22:30   0.00   55.1    67    1.4    11     3.5   1011.7    0.00 
 294   22:40   0.00   55.5    64    1.7   352     4.8   1011.7    0.00 
 294   22:50   0.00   55.1    65    1.8   350     5.8   1011.7    0.00 
 294   23:00   0.00   55.2    65    1.0   346     4.3   1011.7    0.00 
 294   23:10   0.00   55.1    66    1.2   343     3.9   1011.7    0.00 
 294   23:20   0.00   55.5    68    1.5   355     4.2   1011.7    0.00 
 294   23:30   0.00   55.6    66    2.5    12     4.2   1011.8    0.00 
 294   23:40   0.00   55.9    63    1.9    16     4.2   1011.9    0.00 
 294   23:50   0.00   55.8    61    2.0    10     4.7   1012.0    0.00 
 295    0:00   0.00   55.6    60    1.9     5     4.2   1012.0    0.00 
 295    0:10   0.00   55.5    60    1.9    37     3.8   1012.0    0.00 
 295    0:20   0.00   55.8    59    2.4    22     6.4   1011.9    0.00 
 295    0:30   0.00   55.9    58    2.4    27     5.5   1011.8    0.00 
 295    0:40   0.00   55.3    59    2.5    26     5.3   1011.7    0.00 
 295    0:50   0.00   55.3    59    2.5    29     4.5   1011.7    0.00 
 295    1:00   0.00   55.3    59    1.7    25     4.5   1011.8    0.00 
 295    1:10   0.00   54.7    60    2.0     9     3.9   1012.0    0.00 
 295    1:20   0.00   54.3    62    1.7    17     4.6   1012.0    0.00 
 295    1:30   0.00   54.6    61    2.3    15     4.6   1011.9    0.00 
 295    1:40   0.00   54.9    60    2.0    12     4.5   1011.9    0.00 
 295    1:50   0.00   54.5    60    2.2    31     5.3   1011.9    0.00 
 295    2:00   0.00   55.0    58    2.1    38     4.5   1011.8    0.00 
 295    2:10   0.00   55.2    57    2.5    46     5.0   1011.9    0.00 
 295    2:20   0.00   55.3    57    2.8    33     5.0   1011.6    0.00 
 295    2:30   0.00   55.2    57    2.5    42     6.2   1011.4    0.00 
 295    2:40   0.00   55.3    57    3.2    41     6.0   1011.4    0.00 
 295    2:50   0.00   56.2    55    2.3    31     5.7   1011.3    0.00 
 295    3:00   0.00   56.7    54    2.5    26     5.3   1011.3    0.00 
 295    3:10   0.00   58.8    51    0.8    59     2.9   1011.2    0.00 
 295    3:20   0.00   59.8    51    1.0    49     3.1   1011.2    0.00 
 295    3:30   0.00   58.3    54    1.2    43     3.1   1011.2    0.00 
 295    3:40   0.00   58.1    55    1.2    94     3.6   1011.3    0.00 
 295    3:50   0.00   58.6    56    1.1    13     2.7   1011.5    0.00 
 295    4:00   0.00   56.5    56    2.1   357     4.5   1011.4    0.00 
 295    4:10   0.00   56.4    54    1.7    14     4.7   1011.3    0.00 
 295    4:20   0.00   56.3    54    2.2    25     4.9   1011.5    0.00 
 295    4:30   0.00   56.2    54    2.3    15     4.1   1011.6    0.00 
 295    4:40   0.00   55.2    56    1.6    13     4.1   1011.6    0.00 
 295    4:50   0.00   55.2    55    2.1    13     4.5   1011.7    0.00 
 295    5:00   0.00   55.5    54    2.6    16     6.0   1011.7    0.00 
 295    5:10   0.00   55.5    53    2.3    26     5.3   1011.6    0.00 
 295    5:20   0.00   55.2    54    2.4     3     6.6   1011.7    0.00 
 295    5:30   0.00   54.5    56    1.2    12     4.1   1011.8    0.00 
 295    5:40   0.00   54.6    55    1.4    33     4.7   1011.9    0.00 
 295    5:50   0.00   55.5    52    1.9    26     5.9   1011.9    0.00 
 295    6:00   0.00   56.1    49    1.8    31     4.8   1011.9    0.00 
 295    6:10   0.00   56.7    48    1.9    34     4.8   1011.9    0.00 
 295    6:20   0.00   56.1    50    2.0    43     5.0   1011.9    0.00 
 295    6:30   0.01   56.2    49    1.9    42     5.4   1012.0    0.00 
 295    6:40   0.01   56.3    48    2.0    38     5.4   1012.0    0.00 
 295    6:50   0.01   56.7    48    2.4    36     6.3   1012.1    0.00 
 295    7:00   0.01   56.8    48    2.6    42     5.2   1012.3    0.00 
 295    7:10   0.01   56.6    48    2.5    45     5.6   1012.4    0.00 
 295    7:20   0.01   56.8    48    2.4    41     5.5   1012.5    0.00 
 295    7:30   0.01   56.8    48    2.9    52     6.4   1012.6    0.00 
 295    7:40   0.01   56.8    49    3.0    49     6.5   1012.7    0.00 
 295    7:50   0.03   57.4    47    2.8    36     5.5   1012.8    0.00 
 295    8:00   0.03   57.7    48    1.9    30     5.0   1013.0    0.00 
 295    8:10   0.03   57.9    48    2.4     7     5.5   1013.0    0.00 
 295    8:20   0.03   57.3    52    2.7   356     4.8   1013.1    0.00 
 295    8:30   0.04   56.6    55    1.7   352     3.0   1013.2    0.00 
 295    8:40   0.03   56.8    56    1.7   346     3.7   1013.2    0.00 
 295    8:50   0.03   56.8    58    0.9   352     2.4   1013.3    0.00 
 295    9:00   0.03   56.8    59    0.1    38     1.6   1013.3    0.00 
 295    9:10   0.03   58.9    56    1.7   172     3.5   1013.4    0.00 
 295    9:20   0.04   61.9    54    0.8   151     2.6   1013.4    0.00 
 295    9:30   0.04   62.2    57    0.7    60     2.0   1013.3    0.00 
 295    9:40   0.04   62.5    55    0.7    75     2.3   1013.4    0.00 
 295    9:50   0.04   62.9    56    0.9   156     2.4   1013.5    0.00 
 295   10:00   0.40   63.5    58    0.7   224     3.7   1013.4    0.00 
 295   10:10   0.49   64.9    62    2.1   240     3.9   1013.3    0.00 
 295   10:20   0.55   65.9    61    1.6   227     3.6   1013.4    0.00 
 295   10:30   0.57   66.3    63    1.8   151     3.6   1014.0    0.00 
 295   10:40   0.59   66.8    62    1.6   179     3.6   1014.2    0.00 
 295   10:50   0.61   67.7    56    1.9   155     4.0   1014.2    0.00 
 295   11:00   0.63   67.7    55    1.4   152     3.9   1014.3    0.00 
 295   11:10   0.64   69.3    50    2.1   167     5.9   1014.3    0.00 
 295   11:20   0.61   67.8    54    3.4   154     6.4   1014.3    0.00 
 295   11:30   0.47   67.1    62    3.6   193     8.6   1014.0    0.00 
 295   11:40   0.54   67.3    58    2.9   180     7.7   1013.8    0.00 
 295   11:50   0.60   67.3    52    4.0   174     8.8   1013.8    0.00 
 295   12:00   0.69   66.9    47    4.5   104    13.2   1013.8    0.00 
 295   12:10   0.65   66.3    60    5.3   158     9.7   1013.9    0.00 
 295   12:20   0.62   66.7    60    3.3   176     7.3   1013.5    0.00 
 295   12:30   0.62   67.9    55    2.4   174     5.4   1012.9    0.00 
 295   12:40   0.61   67.6    59    3.4   165     6.1   1012.9    0.00 
 295   12:50   0.64   67.2    60    2.5   170     6.1   1013.0    0.00 
 295   13:00   0.64   67.8    62    3.1   188     8.0   1013.2    0.00 
 295   13:10   0.58   67.3    64    2.5   190     6.9   1013.1    0.00 
 295   13:20   0.62   68.3    60    2.5   211     5.5   1013.0    0.00 
 295   13:30   0.56   68.6    57    1.6   200     3.7   1012.8    0.00 
 295   13:40   0.55   68.9    54    1.6   196     4.0   1012.6    0.00 
 295   13:50   0.57   69.0    51    1.5   187     3.9   1012.4    0.00 
 295   14:00   0.47   69.6    55    1.3   213     3.5   1012.4    0.00 
 295   14:10   0.51   69.2    51    1.7   215     4.0   1012.4    0.00 
 295   14:20   0.49   69.7    52    1.3   207     3.8   1012.4    0.00 
 295   14:30   0.49   69.0    58    1.4   240     3.3   1012.4    0.00 
 295   14:40   0.43   67.5    65    1.7   223     4.2   1012.3    0.00 
 295   14:50   0.37   68.5    58    1.2   219     2.6   1012.1    0.00 
 295   15:00   0.32   69.2    52    1.5   208     2.8   1011.9    0.00 
 295   15:10   0.27   69.2    56    1.5   215     3.4   1011.9    0.00 
 295   15:20   0.28   67.4    65    1.3   233     3.3   1011.7    0.00 
 295   15:30   0.24   67.4    67    1.6   216     3.9   1011.8    0.00 
 295   15:40   0.22   66.5    72    2.5   181     7.5   1011.9    0.00 
 295   15:50   0.21   66.5    68    2.0   225     5.3   1011.9    0.00 
 295   16:00   0.18   67.4    62    1.7   229     4.3   1011.9    0.00 
 295   16:10   0.15   67.2    63    1.5   210     4.8   1011.8    0.00 
 295   16:20   0.19   68.1    64    0.8   214     2.3   1011.6    0.00 
 295   16:30   0.11   68.7    65    1.1   190     2.9   1011.6    0.00 
 295   16:40   0.04   67.6    66    0.3   229     1.5   1011.6    0.00 
 295   16:50   0.05   66.1    69    0.5   314     2.0   1011.4    0.00 
 295   17:00   0.03   64.5    70    0.2     1     1.6   1011.2    0.00 
 295   17:10   0.01   63.8    70    0.4    98     1.8   1011.0    0.00 
 295   17:20   0.01   64.1    73    2.1   158     5.7   1011.3    0.00 
 295   17:30   0.00   64.1    78    1.8   169     5.0   1011.4    0.00 
 295   17:40   0.00   62.7    76    0.5   356     2.4   1011.3    0.00 
 295   17:50   0.00   61.1    76    1.0     6     2.6   1011.2    0.00 

Return to Big Creek Reserve Entrance graphs page.


Western Regional Climate Center,wrcc@dri.edu